sensor_id;sensor_type;location;lat;lon;timestamp;pressure;altitude;pressure_sealevel;temperature;humidity
79589;BME280;69067;51.930;4.492;2023-04-10T00:00:09;101942.97;;;19.94;46.07
79589;BME280;69067;51.930;4.492;2023-04-10T00:02:35;101942.84;;;19.96;46.02
79589;BME280;69067;51.930;4.492;2023-04-10T00:05:02;101938.56;;;19.93;45.99
79589;BME280;69067;51.930;4.492;2023-04-10T00:07:28;101936.34;;;19.89;45.86
79589;BME280;69067;51.930;4.492;2023-04-10T00:09:54;101935.19;;;19.91;45.95
79589;BME280;69067;51.930;4.492;2023-04-10T00:12:20;101916.44;;;19.90;46.12
79589;BME280;69067;51.930;4.492;2023-04-10T00:14:45;101928.25;;;19.89;46.33
79589;BME280;69067;51.930;4.492;2023-04-10T00:17:11;101924.53;;;19.90;46.07
79589;BME280;69067;51.930;4.492;2023-04-10T00:19:37;101931.09;;;19.87;46.17
79589;BME280;69067;51.930;4.492;2023-04-10T00:22:03;101922.28;;;19.85;45.96
79589;BME280;69067;51.930;4.492;2023-04-10T00:24:30;101923.31;;;19.84;45.98
79589;BME280;69067;51.930;4.492;2023-04-10T00:26:55;101923.31;;;19.84;46.01
79589;BME280;69067;51.930;4.492;2023-04-10T00:29:22;101913.34;;;19.85;46.08
79589;BME280;69067;51.930;4.492;2023-04-10T00:31:48;101923.31;;;19.84;46.03
79589;BME280;69067;51.930;4.492;2023-04-10T00:34:14;101918.06;;;19.83;46.09
79589;BME280;69067;51.930;4.492;2023-04-10T00:36:40;101910.81;;;19.83;46.00
79589;BME280;69067;51.930;4.492;2023-04-10T00:39:08;101914.38;;;19.84;46.04
79589;BME280;69067;51.930;4.492;2023-04-10T00:41:34;101913.66;;;19.82;46.00
79589;BME280;69067;51.930;4.492;2023-04-10T00:44:00;101910.25;;;19.80;46.17
79589;BME280;69067;51.930;4.492;2023-04-10T00:46:26;101902.00;;;19.81;46.12
79589;BME280;69067;51.930;4.492;2023-04-10T00:48:53;101905.69;;;19.80;46.17
79589;BME280;69067;51.930;4.492;2023-04-10T00:51:20;101896.22;;;19.76;46.34
79589;BME280;69067;51.930;4.492;2023-04-10T00:53:48;101883.56;;;19.77;46.16
79589;BME280;69067;51.930;4.492;2023-04-10T00:56:18;101886.41;;;19.75;46.08
79589;BME280;69067;51.930;4.492;2023-04-10T00:58:46;101876.63;;;19.74;46.12
79589;BME280;69067;51.930;4.492;2023-04-10T01:01:12;101876.31;;;19.77;45.96
79589;BME280;69067;51.930;4.492;2023-04-10T01:03:42;101873.59;;;19.77;45.89
79589;BME280;69067;51.930;4.492;2023-04-10T01:06:15;101866.50;;;19.76;46.11
79589;BME280;69067;51.930;4.492;2023-04-10T01:09:00;101869.19;;;19.76;46.10
79589;BME280;69067;51.930;4.492;2023-04-10T01:11:53;101864.94;;;19.74;45.83
79589;BME280;69067;51.930;4.492;2023-04-10T01:14:32;101865.09;;;19.72;46.08
79589;BME280;69067;51.930;4.492;2023-04-10T01:20:22;101848.03;;;19.72;46.04
79589;BME280;69067;51.930;4.492;2023-04-10T01:26:09;101845.53;;;19.70;45.97
79589;BME280;69067;51.930;4.492;2023-04-10T01:31:53;101831.16;;;19.70;45.90
79589;BME280;69067;51.930;4.492;2023-04-10T01:34:27;101833.88;;;19.70;46.02
79589;BME280;69067;51.930;4.492;2023-04-10T01:37:04;101837.56;;;19.69;46.17
79589;BME280;69067;51.930;4.492;2023-04-10T01:39:38;101842.13;;;19.68;45.93
79589;BME280;69067;51.930;4.492;2023-04-10T01:42:09;101840.28;;;19.69;45.83
79589;BME280;69067;51.930;4.492;2023-04-10T01:44:40;101830.31;;;19.69;45.87
79589;BME280;69067;51.930;4.492;2023-04-10T01:47:07;101821.34;;;19.69;45.78
79589;BME280;69067;51.930;4.492;2023-04-10T01:49:33;101824.22;;;19.67;45.82
79589;BME280;69067;51.930;4.492;2023-04-10T01:52:02;101822.34;;;19.67;45.92
79589;BME280;69067;51.930;4.492;2023-04-10T01:54:32;101823.69;;;19.63;46.13
79589;BME280;69067;51.930;4.492;2023-04-10T01:56:59;101819.94;;;19.64;46.17
79589;BME280;69067;51.930;4.492;2023-04-10T01:59:26;101816.59;;;19.62;46.03
79589;BME280;69067;51.930;4.492;2023-04-10T02:01:56;101821.13;;;19.62;45.85
79589;BME280;69067;51.930;4.492;2023-04-10T02:04:23;101815.75;;;19.62;46.13
79589;BME280;69067;51.930;4.492;2023-04-10T02:06:56;101822.84;;;19.63;46.09
79589;BME280;69067;51.930;4.492;2023-04-10T02:12:15;101820.44;;;19.60;46.00
79589;BME280;69067;51.930;4.492;2023-04-10T02:14:49;101821.13;;;19.62;45.85
79589;BME280;69067;51.930;4.492;2023-04-10T02:17:22;101826.53;;;19.62;45.81
79589;BME280;69067;51.930;4.492;2023-04-10T02:19:57;101823.16;;;19.60;46.17
79589;BME280;69067;51.930;4.492;2023-04-10T02:22:24;101820.44;;;19.60;46.07
79589;BME280;69067;51.930;4.492;2023-04-10T02:24:54;101821.13;;;19.62;45.92
79589;BME280;69067;51.930;4.492;2023-04-10T02:27:30;101822.28;;;19.59;46.07
79589;BME280;69067;51.930;4.492;2023-04-10T02:29:57;101815.75;;;19.62;45.87
79589;BME280;69067;51.930;4.492;2023-04-10T02:32:24;101812.63;;;19.57;46.06
79589;BME280;69067;51.930;4.492;2023-04-10T02:34:50;101816.03;;;19.59;46.14
79589;BME280;69067;51.930;4.492;2023-04-10T02:37:15;101817.75;;;19.60;46.13
79589;BME280;69067;51.930;4.492;2023-04-10T02:39:41;101828.69;;;19.58;45.86
79589;BME280;69067;51.930;4.492;2023-04-10T02:42:07;101825.16;;;19.58;45.83
79589;BME280;69067;51.930;4.492;2023-04-10T02:44:32;101822.44;;;19.58;45.96
79589;BME280;69067;51.930;4.492;2023-04-10T02:46:58;101829.69;;;19.57;46.23
79589;BME280;69067;51.930;4.492;2023-04-10T02:49:24;101828.84;;;19.57;45.96
79589;BME280;69067;51.930;4.492;2023-04-10T02:51:50;101826.31;;;19.55;45.86
79589;BME280;69067;51.930;4.492;2023-04-10T02:54:15;101824.63;;;19.54;45.99
79589;BME280;69067;51.930;4.492;2023-04-10T02:56:41;101821.78;;;19.56;45.79
79589;BME280;69067;51.930;4.492;2023-04-10T02:59:07;101826.47;;;19.54;45.98
79589;BME280;69067;51.930;4.492;2023-04-10T03:01:33;101820.94;;;19.55;45.73
79589;BME280;69067;51.930;4.492;2023-04-10T03:03:58;101816.66;;;19.53;45.71
79589;BME280;69067;51.930;4.492;2023-04-10T03:06:24;101812.81;;;19.55;45.78
79589;BME280;69067;51.930;4.492;2023-04-10T03:08:52;101806.56;;;19.55;45.70
79589;BME280;69067;51.930;4.492;2023-04-10T03:11:18;101806.03;;;19.51;45.97
79589;BME280;69067;51.930;4.492;2023-04-10T03:13:44;101806.03;;;19.51;45.90
79589;BME280;69067;51.930;4.492;2023-04-10T03:16:09;101810.41;;;19.52;46.01
79589;BME280;69067;51.930;4.492;2023-04-10T03:18:35;101809.56;;;19.52;45.97
79589;BME280;69067;51.930;4.492;2023-04-10T03:21:01;101805.03;;;19.52;45.89
79589;BME280;69067;51.930;4.492;2023-04-10T03:23:27;101811.59;;;19.50;45.96
79589;BME280;69067;51.930;4.492;2023-04-10T03:25:52;101805.88;;;19.53;45.82
79589;BME280;69067;51.930;4.492;2023-04-10T03:28:20;101797.41;;;19.48;46.17
79589;BME280;69067;51.930;4.492;2023-04-10T03:30:46;101789.81;;;19.51;45.82
79589;BME280;69067;51.930;4.492;2023-04-10T03:33:12;101791.66;;;19.51;45.82
79589;BME280;69067;51.930;4.492;2023-04-10T03:35:38;101794.38;;;19.51;45.88
79589;BME280;69067;51.930;4.492;2023-04-10T03:38:03;101786.59;;;19.48;45.79
79589;BME280;69067;51.930;4.492;2023-04-10T03:40:29;101790.00;;;19.50;46.16
79589;BME280;69067;51.930;4.492;2023-04-10T03:42:55;101779.19;;;19.50;45.74
79589;BME280;69067;51.930;4.492;2023-04-10T03:45:21;101773.34;;;19.45;46.10
79589;BME280;69067;51.930;4.492;2023-04-10T03:47:46;101768.53;;;19.48;45.92
79589;BME280;69067;51.930;4.492;2023-04-10T03:50:12;101774.09;;;19.47;45.92
79589;BME280;69067;51.930;4.492;2023-04-10T03:52:39;101764.13;;;19.47;45.94
79589;BME280;69067;51.930;4.492;2023-04-10T03:55:05;101758.72;;;19.47;46.32
79589;BME280;69067;51.930;4.492;2023-04-10T03:57:31;101756.16;;;19.46;45.92
79589;BME280;69067;51.930;4.492;2023-04-10T03:59:56;101749.91;;;19.45;45.59
79589;BME280;69067;51.930;4.492;2023-04-10T04:02:22;101753.44;;;19.46;45.91
79589;BME280;69067;51.930;4.492;2023-04-10T04:04:48;101753.59;;;19.44;45.35
79589;BME280;69067;51.930;4.492;2023-04-10T04:07:13;101749.03;;;19.45;45.80
79589;BME280;69067;51.930;4.492;2023-04-10T04:09:39;101756.50;;;19.43;45.82
79589;BME280;69067;51.930;4.492;2023-04-10T04:12:08;101748.38;;;19.43;46.02
79589;BME280;69067;51.930;4.492;2023-04-10T04:14:33;101759.84;;;19.45;45.88
79589;BME280;69067;51.930;4.492;2023-04-10T04:16:59;101743.97;;;19.42;45.83
79589;BME280;69067;51.930;4.492;2023-04-10T04:19:25;101743.97;;;19.42;45.98
79589;BME280;69067;51.930;4.492;2023-04-10T04:21:51;101749.03;;;19.45;45.86
79589;BME280;69067;51.930;4.492;2023-04-10T04:24:16;101747.34;;;19.44;46.06
79589;BME280;69067;51.930;4.492;2023-04-10T04:26:42;101747.34;;;19.44;45.87
79589;BME280;69067;51.930;4.492;2023-04-10T04:29:08;101743.97;;;19.42;45.85
79589;BME280;69067;51.930;4.492;2023-04-10T04:31:33;101734.19;;;19.41;45.73
79589;BME280;69067;51.930;4.492;2023-04-10T04:34:00;101728.09;;;19.39;45.64
79589;BME280;69067;51.930;4.492;2023-04-10T04:36:26;101727.09;;;19.40;46.04
79589;BME280;69067;51.930;4.492;2023-04-10T04:38:53;101734.19;;;19.41;45.88
79589;BME280;69067;51.930;4.492;2023-04-10T04:41:19;101728.09;;;19.39;45.93
79589;BME280;69067;51.930;4.492;2023-04-10T04:43:45;101725.38;;;19.39;45.86
79589;BME280;69067;51.930;4.492;2023-04-10T04:46:12;101715.56;;;19.38;46.16
79589;BME280;69067;51.930;4.492;2023-04-10T04:48:38;101713.56;;;19.40;45.79
79589;BME280;69067;51.930;4.492;2023-04-10T04:51:05;101712.88;;;19.38;46.03
79589;BME280;69067;51.930;4.492;2023-04-10T04:53:31;101720.97;;;19.38;46.05
79589;BME280;69067;51.930;4.492;2023-04-10T04:55:57;101715.56;;;19.38;45.82
79589;BME280;69067;51.930;4.492;2023-04-10T04:58:23;101719.28;;;19.37;45.55
79589;BME280;69067;51.930;4.492;2023-04-10T05:00:50;101713.03;;;19.36;45.82
79589;BME280;69067;51.930;4.492;2023-04-10T05:03:16;101716.59;;;19.37;45.75
79589;BME280;69067;51.930;4.492;2023-04-10T05:05:42;101711.03;;;19.38;45.55
79589;BME280;69067;51.930;4.492;2023-04-10T05:08:08;101707.63;;;19.36;45.93
79589;BME280;69067;51.930;4.492;2023-04-10T05:10:35;101704.25;;;19.34;45.53
79589;BME280;69067;51.930;4.492;2023-04-10T05:13:00;101712.38;;;19.34;45.66
79589;BME280;69067;51.930;4.492;2023-04-10T05:15:26;101708.81;;;19.34;45.96
79589;BME280;69067;51.930;4.492;2023-04-10T05:17:52;101708.81;;;19.34;45.97
79589;BME280;69067;51.930;4.492;2023-04-10T05:20:18;101707.97;;;19.33;46.09
79589;BME280;69067;51.930;4.492;2023-04-10T05:22:46;101710.66;;;19.33;45.67
79589;BME280;69067;51.930;4.492;2023-04-10T05:25:12;101707.13;;;19.33;45.84
79589;BME280;69067;51.930;4.492;2023-04-10T05:27:38;101713.38;;;19.33;45.92
79589;BME280;69067;51.930;4.492;2023-04-10T05:30:04;101709.13;;;19.31;45.88
79589;BME280;69067;51.930;4.492;2023-04-10T05:32:30;101703.72;;;19.31;45.97
79589;BME280;69067;51.930;4.492;2023-04-10T05:34:56;101702.72;;;19.32;45.66
79589;BME280;69067;51.930;4.492;2023-04-10T05:37:21;101703.72;;;19.31;45.94
79589;BME280;69067;51.930;4.492;2023-04-10T05:39:47;101710.81;;;19.32;45.68
79589;BME280;69067;51.930;4.492;2023-04-10T05:42:13;101702.88;;;19.30;45.99
79589;BME280;69067;51.930;4.492;2023-04-10T05:44:39;101703.06;;;19.28;45.72
79589;BME280;69067;51.930;4.492;2023-04-10T05:47:04;101704.91;;;19.28;45.80
79589;BME280;69067;51.930;4.492;2023-04-10T05:49:30;101701.19;;;19.29;45.79
79589;BME280;69067;51.930;4.492;2023-04-10T05:51:56;101692.41;;;19.27;45.97
79589;BME280;69067;51.930;4.492;2023-04-10T05:54:22;101687.84;;;19.27;46.04
79589;BME280;69067;51.930;4.492;2023-04-10T05:56:47;101676.19;;;19.27;45.74
79589;BME280;69067;51.930;4.492;2023-04-10T05:59:13;101684.16;;;19.28;45.63
79589;BME280;69067;51.930;4.492;2023-04-10T06:01:40;101687.69;;;19.29;46.01
79589;BME280;69067;51.930;4.492;2023-04-10T06:04:06;101680.06;;;19.24;45.71
79589;BME280;69067;51.930;4.492;2023-04-10T06:06:32;101678.75;;;19.28;45.84
79589;BME280;69067;51.930;4.492;2023-04-10T06:08:58;101677.06;;;19.27;45.75
79589;BME280;69067;51.930;4.492;2023-04-10T06:11:23;101676.34;;;19.25;45.82
79589;BME280;69067;51.930;4.492;2023-04-10T06:13:49;101679.91;;;19.26;45.79
79589;BME280;69067;51.930;4.492;2023-04-10T06:16:15;101666.56;;;19.24;45.75
79589;BME280;69067;51.930;4.492;2023-04-10T06:18:41;101670.25;;;19.23;46.07
79589;BME280;69067;51.930;4.492;2023-04-10T06:21:08;101663.16;;;19.22;45.83
79589;BME280;69067;51.930;4.492;2023-04-10T06:23:33;101654.91;;;19.24;45.69
79589;BME280;69067;51.930;4.492;2023-04-10T06:25:59;101645.81;;;19.25;45.87
79589;BME280;69067;51.930;4.492;2023-04-10T06:28:25;101640.75;;;19.22;46.06
79589;BME280;69067;51.930;4.492;2023-04-10T06:30:51;101638.72;;;19.24;46.07
79589;BME280;69067;51.930;4.492;2023-04-10T06:33:18;101635.34;;;19.22;46.05
79589;BME280;69067;51.930;4.492;2023-04-10T06:35:44;101629.09;;;19.21;46.09
79589;BME280;69067;51.930;4.492;2023-04-10T06:38:10;101628.91;;;19.23;45.68
79589;BME280;69067;51.930;4.492;2023-04-10T06:40:36;101624.34;;;19.23;45.56
79589;BME280;69067;51.930;4.492;2023-04-10T06:43:02;101618.97;;;19.23;45.59
79589;BME280;69067;51.930;4.492;2023-04-10T06:45:27;101611.84;;;19.22;45.73
79589;BME280;69067;51.930;4.492;2023-04-10T06:47:53;101606.47;;;19.22;45.87
79589;BME280;69067;51.930;4.492;2023-04-10T06:50:19;101612.91;;;19.21;45.86
79589;BME280;69067;51.930;4.492;2023-04-10T06:52:46;101619.28;;;19.20;45.70
79589;BME280;69067;51.930;4.492;2023-04-10T06:55:12;101607.50;;;19.21;45.67
79589;BME280;69067;51.930;4.492;2023-04-10T06:57:39;101601.91;;;19.23;45.77
79589;BME280;69067;51.930;4.492;2023-04-10T07:00:05;101607.50;;;19.21;45.67
79589;BME280;69067;51.930;4.492;2023-04-10T07:02:32;101601.25;;;19.21;45.68
79589;BME280;69067;51.930;4.492;2023-04-10T07:04:57;101598.84;;;19.18;45.65
79589;BME280;69067;51.930;4.492;2023-04-10T07:07:23;101600.41;;;19.20;45.54
79589;BME280;69067;51.930;4.492;2023-04-10T07:09:49;101595.00;;;19.20;45.63
79589;BME280;69067;51.930;4.492;2023-04-10T07:12:15;101595.00;;;19.20;45.57
79589;BME280;69067;51.930;4.492;2023-04-10T07:14:40;101593.31;;;19.19;45.79
79589;BME280;69067;51.930;4.492;2023-04-10T07:17:07;101592.44;;;19.19;45.71
79589;BME280;69067;51.930;4.492;2023-04-10T07:19:33;101584.50;;;19.17;45.54
79589;BME280;69067;51.930;4.492;2023-04-10T07:21:59;101582.66;;;19.18;45.63
79589;BME280;69067;51.930;4.492;2023-04-10T07:24:25;101574.72;;;19.16;45.63
79589;BME280;69067;51.930;4.492;2023-04-10T07:26:52;101572.00;;;19.16;45.96
79589;BME280;69067;51.930;4.492;2023-04-10T07:29:18;101571.00;;;19.17;45.77
79589;BME280;69067;51.930;4.492;2023-04-10T07:31:44;101569.31;;;19.16;45.53
79589;BME280;69067;51.930;4.492;2023-04-10T07:34:10;101563.06;;;19.16;45.62
79589;BME280;69067;51.930;4.492;2023-04-10T07:36:36;101566.63;;;19.16;45.58
79589;BME280;69067;51.930;4.492;2023-04-10T07:39:02;101557.66;;;19.16;45.66
79589;BME280;69067;51.930;4.492;2023-04-10T07:41:28;101558.69;;;19.15;46.09
79589;BME280;69067;51.930;4.492;2023-04-10T07:43:53;101553.31;;;19.15;45.75
79589;BME280;69067;51.930;4.492;2023-04-10T07:46:19;101542.50;;;19.15;45.70
79589;BME280;69067;51.930;4.492;2023-04-10T07:48:45;101547.72;;;19.16;45.79
79589;BME280;69067;51.930;4.492;2023-04-10T07:51:12;101533.56;;;19.14;45.63
79589;BME280;69067;51.930;4.492;2023-04-10T07:53:38;101540.97;;;19.12;45.67
79589;BME280;69067;51.930;4.492;2023-04-10T07:56:04;101526.63;;;19.12;45.74
79589;BME280;69067;51.930;4.492;2023-04-10T07:58:30;101530.16;;;19.12;45.60
79589;BME280;69067;51.930;4.492;2023-04-10T08:00:57;101522.91;;;19.13;45.78
79589;BME280;69067;51.930;4.492;2023-04-10T08:03:23;101520.38;;;19.11;45.73
79589;BME280;69067;51.930;4.492;2023-04-10T08:05:49;101518.38;;;19.13;45.50
79589;BME280;69067;51.930;4.492;2023-04-10T08:08:15;101510.41;;;19.12;45.68
79589;BME280;69067;51.930;4.492;2023-04-10T08:10:41;101500.47;;;19.12;45.52
79589;BME280;69067;51.930;4.492;2023-04-10T08:13:07;101505.72;;;19.14;45.55
79589;BME280;69067;51.930;4.492;2023-04-10T08:15:33;101504.19;;;19.11;45.49
79589;BME280;69067;51.930;4.492;2023-04-10T08:17:59;101495.38;;;19.09;45.38
79589;BME280;69067;51.930;4.492;2023-04-10T08:20:24;101493.53;;;19.10;45.63
79589;BME280;69067;51.930;4.492;2023-04-10T08:22:50;101494.22;;;19.12;45.59
79589;BME280;69067;51.930;4.492;2023-04-10T08:25:16;101492.53;;;19.11;45.58
79589;BME280;69067;51.930;4.492;2023-04-10T08:27:41;101494.38;;;19.10;45.66
79589;BME280;69067;51.930;4.492;2023-04-10T08:30:07;101498.78;;;19.11;45.42
79589;BME280;69067;51.930;4.492;2023-04-10T08:32:34;101491.69;;;19.10;45.44
79589;BME280;69067;51.930;4.492;2023-04-10T08:35:00;101493.53;;;19.10;45.55
79589;BME280;69067;51.930;4.492;2023-04-10T08:37:26;101482.56;;;19.11;45.54
79589;BME280;69067;51.930;4.492;2023-04-10T08:39:52;101481.72;;;19.11;45.53
79589;BME280;69067;51.930;4.492;2023-04-10T08:42:17;101482.91;;;19.08;45.50
79589;BME280;69067;51.930;4.492;2023-04-10T08:44:43;101470.09;;;19.10;45.56
79589;BME280;69067;51.930;4.492;2023-04-10T08:47:13;101464.69;;;19.10;45.13
79589;BME280;69067;51.930;4.492;2023-04-10T08:49:57;101463.84;;;19.10;45.56
79589;BME280;69067;51.930;4.492;2023-04-10T08:52:29;101464.69;;;19.10;45.29
79589;BME280;69067;51.930;4.492;2023-04-10T08:55:01;101452.19;;;19.09;45.65
79589;BME280;69067;51.930;4.492;2023-04-10T08:57:32;101452.19;;;19.09;45.26
79589;BME280;69067;51.930;4.492;2023-04-10T08:59:58;101448.66;;;19.09;45.45
79589;BME280;69067;51.930;4.492;2023-04-10T09:02:23;101446.78;;;19.09;45.36
79589;BME280;69067;51.930;4.492;2023-04-10T09:04:51;101448.84;;;19.07;45.42
79589;BME280;69067;51.930;4.492;2023-04-10T09:07:20;101438.69;;;19.09;45.56
79589;BME280;69067;51.930;4.492;2023-04-10T09:09:47;101437.84;;;19.09;45.48
79589;BME280;69067;51.930;4.492;2023-04-10T09:12:15;101436.19;;;19.08;45.36
79589;BME280;69067;51.930;4.492;2023-04-10T09:14:41;101440.56;;;19.09;45.25
79589;BME280;69067;51.930;4.492;2023-04-10T09:17:15;101439.72;;;19.08;45.36
79589;BME280;69067;51.930;4.492;2023-04-10T09:19:52;101425.53;;;19.06;45.74
79589;BME280;69067;51.930;4.492;2023-04-10T09:22:31;101419.16;;;19.07;45.59
79589;BME280;69067;51.930;4.492;2023-04-10T09:24:59;101413.75;;;19.07;45.33
79589;BME280;69067;51.930;4.492;2023-04-10T09:27:34;101418.97;;;19.09;45.56
79589;BME280;69067;51.930;4.492;2023-04-10T09:30:02;101408.34;;;19.07;45.44
79589;BME280;69067;51.930;4.492;2023-04-10T09:32:44;101411.03;;;19.07;45.52
79589;BME280;69067;51.930;4.492;2023-04-10T09:35:14;101407.34;;;19.08;45.13
79589;BME280;69067;51.930;4.492;2023-04-10T09:37:43;101398.41;;;19.08;45.44
79589;BME280;69067;51.930;4.492;2023-04-10T09:40:21;101405.66;;;19.07;45.58
79589;BME280;69067;51.930;4.492;2023-04-10T09:42:52;101392.16;;;19.07;45.53
79589;BME280;69067;51.930;4.492;2023-04-10T09:45:18;101399.56;;;19.05;45.39
79589;BME280;69067;51.930;4.492;2023-04-10T09:48:02;101395.69;;;19.08;45.25
79589;BME280;69067;51.930;4.492;2023-04-10T09:50:38;101393.16;;;19.06;45.33
79589;BME280;69067;51.930;4.492;2023-04-10T09:53:06;101390.31;;;19.08;45.28
79589;BME280;69067;51.930;4.492;2023-04-10T09:55:34;101376.97;;;19.06;45.68
79589;BME280;69067;51.930;4.492;2023-04-10T09:58:03;101378.81;;;19.06;45.30
79589;BME280;69067;51.930;4.492;2023-04-10T10:00:34;101359.06;;;19.05;45.45
79589;BME280;69067;51.930;4.492;2023-04-10T10:03:13;101368.88;;;19.06;45.50
79589;BME280;69067;51.930;4.492;2023-04-10T10:05:50;101365.16;;;19.07;45.53
79589;BME280;69067;51.930;4.492;2023-04-10T10:08:16;101366.16;;;19.06;45.57
79589;BME280;69067;51.930;4.492;2023-04-10T10:10:47;101362.63;;;19.06;45.29
79589;BME280;69067;51.930;4.492;2023-04-10T10:16:28;101353.53;;;19.07;45.46
79589;BME280;69067;51.930;4.492;2023-04-10T10:19:18;101352.84;;;19.05;45.41
79589;BME280;69067;51.930;4.492;2023-04-10T10:21:48;101349.28;;;19.04;45.42
79589;BME280;69067;51.930;4.492;2023-04-10T10:24:19;101334.63;;;19.07;45.33
79589;BME280;69067;51.930;4.492;2023-04-10T10:26:49;101341.88;;;19.06;45.13
79589;BME280;69067;51.930;4.492;2023-04-10T10:29:17;101337.66;;;19.04;45.30
79589;BME280;69067;51.930;4.492;2023-04-10T10:31:45;101320.44;;;19.05;45.42
79589;BME280;69067;51.930;4.492;2023-04-10T10:34:14;101315.88;;;19.05;45.28
79589;BME280;69067;51.930;4.492;2023-04-10T10:36:41;101306.94;;;19.05;45.22
79589;BME280;69067;51.930;4.492;2023-04-10T10:39:33;101308.66;;;19.06;45.13
79589;BME280;69067;51.930;4.492;2023-04-10T10:42:25;101281.81;;;19.04;45.20
79589;BME280;69067;51.930;4.492;2023-04-10T10:45:18;101271.69;;;19.06;45.38
79589;BME280;69067;51.930;4.492;2023-04-10T10:47:52;101276.41;;;19.04;45.07
79589;BME280;69067;51.930;4.492;2023-04-10T10:50:19;101268.16;;;19.06;45.09
79589;BME280;69067;51.930;4.492;2023-04-10T10:57:51;101256.50;;;19.05;45.13
79589;BME280;69067;51.930;4.492;2023-04-10T11:00:20;101248.41;;;19.05;44.97
79589;BME280;69067;51.930;4.492;2023-04-10T11:05:56;101237.63;;;19.05;45.11
79589;BME280;69067;51.930;4.492;2023-04-10T11:10:59;101224.97;;;19.06;44.99
79589;BME280;69067;51.930;4.492;2023-04-10T11:13:31;101224.13;;;19.05;45.16
79589;BME280;69067;51.930;4.492;2023-04-10T11:15:59;101219.72;;;19.04;45.13
79589;BME280;69067;51.930;4.492;2023-04-10T11:21:14;101221.59;;;19.04;45.03
79589;BME280;69067;51.930;4.492;2023-04-10T11:26:36;101213.34;;;19.05;44.93
79589;BME280;69067;51.930;4.492;2023-04-10T11:29:05;101211.63;;;19.04;45.07
79589;BME280;69067;51.930;4.492;2023-04-10T11:34:23;101191.75;;;19.05;45.39
79589;BME280;69067;51.930;4.492;2023-04-10T11:36:51;101188.19;;;19.05;45.07
79589;BME280;69067;51.930;4.492;2023-04-10T11:39:18;101193.44;;;19.06;44.91
79589;BME280;69067;51.930;4.492;2023-04-10T11:41:46;101178.25;;;19.05;45.08
79589;BME280;69067;51.930;4.492;2023-04-10T11:46:57;101174.19;;;19.09;45.14
79589;BME280;69067;51.930;4.492;2023-04-10T11:49:25;101165.44;;;19.07;45.20
79589;BME280;69067;51.930;4.492;2023-04-10T11:51:54;101153.44;;;19.10;44.75
79589;BME280;69067;51.930;4.492;2023-04-10T11:54:24;101153.63;;;19.08;45.33
79589;BME280;69067;51.930;4.492;2023-04-10T11:59:31;101149.41;;;19.06;44.88
79589;BME280;69067;51.930;4.492;2023-04-10T12:02:08;101138.25;;;19.09;44.84
79589;BME280;69067;51.930;4.492;2023-04-10T12:04:36;101143.84;;;19.07;44.71
79589;BME280;69067;51.930;4.492;2023-04-10T12:07:02;101139.09;;;19.09;44.92
79589;BME280;69067;51.930;4.492;2023-04-10T12:09:28;101144.50;;;19.09;45.25
79589;BME280;69067;51.930;4.492;2023-04-10T12:11:56;101142.84;;;19.08;45.07
79589;BME280;69067;51.930;4.492;2023-04-10T12:14:40;101150.94;;;19.08;45.22
79589;BME280;69067;51.930;4.492;2023-04-10T12:17:08;101144.50;;;19.09;45.13
79589;BME280;69067;51.930;4.492;2023-04-10T12:19:37;101143.00;;;19.07;44.99
79589;BME280;69067;51.930;4.492;2023-04-10T12:22:03;101143.47;;;19.10;44.94
79589;BME280;69067;51.930;4.492;2023-04-10T12:24:44;101140.63;;;19.12;45.00
79589;BME280;69067;51.930;4.492;2023-04-10T12:27:24;101126.63;;;19.08;44.95
79589;BME280;69067;51.930;4.492;2023-04-10T12:29:53;101134.38;;;19.11;44.91
79589;BME280;69067;51.930;4.492;2023-04-10T12:32:20;101129.97;;;19.10;44.96
79589;BME280;69067;51.930;4.492;2023-04-10T12:34:51;101124.59;;;19.10;45.09
79589;BME280;69067;51.930;4.492;2023-04-10T12:37:18;101121.72;;;19.12;44.59
79589;BME280;69067;51.930;4.492;2023-04-10T12:39:44;101123.75;;;19.10;44.98
79589;BME280;69067;51.930;4.492;2023-04-10T12:42:14;101120.19;;;19.09;45.11
79589;BME280;69067;51.930;4.492;2023-04-10T12:44:59;101110.94;;;19.12;45.07
79589;BME280;69067;51.930;4.492;2023-04-10T12:47:27;101108.22;;;19.12;44.87
79589;BME280;69067;51.930;4.492;2023-04-10T12:50:22;101096.75;;;19.10;45.12
79589;BME280;69067;51.930;4.492;2023-04-10T12:53:02;101085.13;;;19.09;44.79
79589;BME280;69067;51.930;4.492;2023-04-10T12:55:31;101082.25;;;19.11;44.70
79589;BME280;69067;51.930;4.492;2023-04-10T12:57:57;101083.09;;;19.11;44.94
79589;BME280;69067;51.930;4.492;2023-04-10T13:00:24;101077.38;;;19.14;44.90
79589;BME280;69067;51.930;4.492;2023-04-10T13:02:50;101072.28;;;19.11;44.85
79589;BME280;69067;51.930;4.492;2023-04-10T13:05:15;101059.47;;;19.13;44.90
79589;BME280;69067;51.930;4.492;2023-04-10T13:07:41;101056.09;;;19.11;44.92
79589;BME280;69067;51.930;4.492;2023-04-10T13:10:07;101046.63;;;19.15;44.74
79589;BME280;69067;51.930;4.492;2023-04-10T13:12:34;101051.38;;;19.13;44.95
79589;BME280;69067;51.930;4.492;2023-04-10T13:15:02;101046.16;;;19.12;45.18
79589;BME280;69067;51.930;4.492;2023-04-10T13:17:28;101043.13;;;19.15;44.88
79589;BME280;69067;51.930;4.492;2023-04-10T13:19:54;101037.72;;;19.15;44.73
79589;BME280;69067;51.930;4.492;2023-04-10T13:22:20;101040.91;;;19.18;45.12
79589;BME280;69067;51.930;4.492;2023-04-10T13:24:45;101025.41;;;19.12;45.33
79589;BME280;69067;51.930;4.492;2023-04-10T13:27:11;101027.94;;;19.14;45.21
79589;BME280;69067;51.930;4.492;2023-04-10T13:29:40;101024.38;;;19.13;45.52
79589;BME280;69067;51.930;4.492;2023-04-10T13:32:07;101029.63;;;19.15;45.38
79589;BME280;69067;51.930;4.492;2023-04-10T13:34:34;101042.28;;;19.14;45.42